KACV - Arcata/Eureka, California, USA
Updated: Tue, 21-Nov-2017 2:53am PST
Light rain, Mostly cloudy
Light rain, Mostly cloudy
 Wind from ESE
Wind: ESE 14 mph , 22 km/h, Gust: 23 mph , 37 km/h
Temperature: 64°F , 18°C
Dew Point: 54°F , 12°C
Humidity: 68%
Barometer: 29.99 inHg , 1015.6 hPa
Summary: Light Rain
Clouds: Mostly Cloudy
Visibility: 10 miles , 16 km
Cloud details: Few Clouds 5500 ft
Partly Cloudy 8000 ft
Mostly Cloudy 10000 ft
2017/11/21 10:53 KACV 211053Z AUTO 11012G20KT 10SM -RA FEW055 SCT080 BKN100 18/12 A2999 RMK AO2 RAB0954E16B44 SLP157 P0000 T01830122

Metar display script from Saratoga-Weather.org